sensor_id;sensor_type;location;lat;lon;timestamp;P1;durP1;ratioP1;P2;durP2;ratioP2
13255;SDS011;37913;48.370;10.930;2023-05-23T00:01:13;91.18;;;45.92;;
13255;SDS011;37913;48.370;10.930;2023-05-23T00:03:41;92.72;;;45.38;;
13255;SDS011;37913;48.370;10.930;2023-05-23T00:06:08;92.00;;;45.90;;
13255;SDS011;37913;48.370;10.930;2023-05-23T00:08:36;98.50;;;46.83;;
13255;SDS011;37913;48.370;10.930;2023-05-23T00:11:03;94.13;;;45.40;;
13255;SDS011;37913;48.370;10.930;2023-05-23T00:13:36;93.05;;;46.50;;
13255;SDS011;37913;48.370;10.930;2023-05-23T00:16:05;98.20;;;46.45;;
13255;SDS011;37913;48.370;10.930;2023-05-23T00:18:33;95.47;;;47.05;;
13255;SDS011;37913;48.370;10.930;2023-05-23T00:21:00;92.40;;;46.17;;
13255;SDS011;37913;48.370;10.930;2023-05-23T00:23:27;96.35;;;47.65;;
13255;SDS011;37913;48.370;10.930;2023-05-23T00:25:56;100.75;;;47.10;;
13255;SDS011;37913;48.370;10.930;2023-05-23T00:28:24;90.50;;;45.90;;
13255;SDS011;37913;48.370;10.930;2023-05-23T00:30:52;95.65;;;47.28;;
13255;SDS011;37913;48.370;10.930;2023-05-23T00:33:19;94.47;;;47.10;;
13255;SDS011;37913;48.370;10.930;2023-05-23T00:35:46;95.10;;;46.83;;
13255;SDS011;37913;48.370;10.930;2023-05-23T00:38:15;92.97;;;45.92;;
13255;SDS011;37913;48.370;10.930;2023-05-23T00:40:42;92.25;;;46.88;;
13255;SDS011;37913;48.370;10.930;2023-05-23T00:43:11;100.40;;;47.08;;
13255;SDS011;37913;48.370;10.930;2023-05-23T00:45:38;84.88;;;44.25;;
13255;SDS011;37913;48.370;10.930;2023-05-23T00:48:04;90.47;;;45.78;;
13255;SDS011;37913;48.370;10.930;2023-05-23T00:50:33;94.63;;;46.10;;
13255;SDS011;37913;48.370;10.930;2023-05-23T00:53:00;93.75;;;47.03;;
13255;SDS011;37913;48.370;10.930;2023-05-23T00:55:27;92.78;;;46.38;;
13255;SDS011;37913;48.370;10.930;2023-05-23T00:57:55;87.47;;;45.83;;
13255;SDS011;37913;48.370;10.930;2023-05-23T01:00:24;81.65;;;44.28;;
13255;SDS011;37913;48.370;10.930;2023-05-23T01:02:51;94.00;;;46.70;;
13255;SDS011;37913;48.370;10.930;2023-05-23T01:05:22;89.95;;;46.08;;
13255;SDS011;37913;48.370;10.930;2023-05-23T01:08:03;90.80;;;46.60;;
13255;SDS011;37913;48.370;10.930;2023-05-23T01:10:32;92.80;;;46.50;;
13255;SDS011;37913;48.370;10.930;2023-05-23T01:13:09;91.93;;;46.90;;
13255;SDS011;37913;48.370;10.930;2023-05-23T01:15:46;101.72;;;48.95;;
13255;SDS011;37913;48.370;10.930;2023-05-23T01:18:17;105.70;;;49.50;;
13255;SDS011;37913;48.370;10.930;2023-05-23T01:20:48;96.95;;;47.05;;
13255;SDS011;37913;48.370;10.930;2023-05-23T01:23:24;105.43;;;48.72;;
13255;SDS011;37913;48.370;10.930;2023-05-23T01:26:06;88.65;;;45.40;;
13255;SDS011;37913;48.370;10.930;2023-05-23T01:28:46;105.20;;;48.88;;
13255;SDS011;37913;48.370;10.930;2023-05-23T01:31:17;100.03;;;48.30;;
13255;SDS011;37913;48.370;10.930;2023-05-23T01:33:45;91.53;;;47.33;;
13255;SDS011;37913;48.370;10.930;2023-05-23T01:36:15;94.07;;;46.65;;
13255;SDS011;37913;48.370;10.930;2023-05-23T01:38:42;111.20;;;50.50;;
13255;SDS011;37913;48.370;10.930;2023-05-23T01:41:08;94.90;;;47.72;;
13255;SDS011;37913;48.370;10.930;2023-05-23T01:43:35;93.30;;;48.28;;
13255;SDS011;37913;48.370;10.930;2023-05-23T01:46:04;103.18;;;49.47;;
13255;SDS011;37913;48.370;10.930;2023-05-23T01:48:32;100.45;;;48.67;;
13255;SDS011;37913;48.370;10.930;2023-05-23T01:51:01;90.10;;;46.72;;
13255;SDS011;37913;48.370;10.930;2023-05-23T01:53:28;99.25;;;48.22;;
13255;SDS011;37913;48.370;10.930;2023-05-23T01:55:56;95.43;;;47.50;;
13255;SDS011;37913;48.370;10.930;2023-05-23T01:58:27;89.18;;;45.70;;
13255;SDS011;37913;48.370;10.930;2023-05-23T02:00:54;87.18;;;46.03;;
13255;SDS011;37913;48.370;10.930;2023-05-23T02:03:22;93.55;;;47.08;;
13255;SDS011;37913;48.370;10.930;2023-05-23T02:05:49;100.97;;;48.90;;
13255;SDS011;37913;48.370;10.930;2023-05-23T02:08:16;99.68;;;50.28;;
13255;SDS011;37913;48.370;10.930;2023-05-23T02:10:44;105.45;;;49.60;;
13255;SDS011;37913;48.370;10.930;2023-05-23T02:13:11;96.28;;;47.35;;
13255;SDS011;37913;48.370;10.930;2023-05-23T02:15:38;101.07;;;49.00;;
13255;SDS011;37913;48.370;10.930;2023-05-23T02:18:04;101.35;;;49.03;;
13255;SDS011;37913;48.370;10.930;2023-05-23T02:20:33;91.93;;;47.40;;
13255;SDS011;37913;48.370;10.930;2023-05-23T02:23:00;105.47;;;49.85;;
13255;SDS011;37913;48.370;10.930;2023-05-23T02:25:27;103.97;;;49.78;;
13255;SDS011;37913;48.370;10.930;2023-05-23T02:27:54;102.20;;;49.17;;
13255;SDS011;37913;48.370;10.930;2023-05-23T02:30:21;100.43;;;48.92;;
13255;SDS011;37913;48.370;10.930;2023-05-23T02:32:48;103.15;;;49.40;;
13255;SDS011;37913;48.370;10.930;2023-05-23T02:35:15;106.82;;;50.38;;
13255;SDS011;37913;48.370;10.930;2023-05-23T02:37:43;94.50;;;47.33;;
13255;SDS011;37913;48.370;10.930;2023-05-23T02:40:10;94.18;;;47.83;;
13255;SDS011;37913;48.370;10.930;2023-05-23T02:42:37;95.88;;;49.05;;
13255;SDS011;37913;48.370;10.930;2023-05-23T02:45:05;99.25;;;49.03;;
13255;SDS011;37913;48.370;10.930;2023-05-23T02:47:33;108.00;;;49.60;;
13255;SDS011;37913;48.370;10.930;2023-05-23T02:49:59;98.93;;;48.13;;
13255;SDS011;37913;48.370;10.930;2023-05-23T02:52:26;107.40;;;51.08;;
13255;SDS011;37913;48.370;10.930;2023-05-23T02:54:54;125.88;;;53.33;;
13255;SDS011;37913;48.370;10.930;2023-05-23T02:57:21;101.50;;;49.35;;
13255;SDS011;37913;48.370;10.930;2023-05-23T02:59:48;116.85;;;51.47;;
13255;SDS011;37913;48.370;10.930;2023-05-23T03:02:15;100.07;;;48.78;;
13255;SDS011;37913;48.370;10.930;2023-05-23T03:04:42;105.30;;;49.70;;
13255;SDS011;37913;48.370;10.930;2023-05-23T03:07:10;94.88;;;48.15;;
13255;SDS011;37913;48.370;10.930;2023-05-23T03:09:39;117.20;;;51.95;;
13255;SDS011;37913;48.370;10.930;2023-05-23T03:12:07;113.80;;;52.05;;
13255;SDS011;37913;48.370;10.930;2023-05-23T03:14:34;111.57;;;51.50;;
13255;SDS011;37913;48.370;10.930;2023-05-23T03:17:01;110.53;;;50.80;;
13255;SDS011;37913;48.370;10.930;2023-05-23T03:19:28;96.50;;;48.83;;
13255;SDS011;37913;48.370;10.930;2023-05-23T03:21:55;104.70;;;49.95;;
13255;SDS011;37913;48.370;10.930;2023-05-23T03:24:22;108.22;;;50.30;;
13255;SDS011;37913;48.370;10.930;2023-05-23T03:26:49;106.93;;;52.00;;
13255;SDS011;37913;48.370;10.930;2023-05-23T03:29:17;101.25;;;49.47;;
13255;SDS011;37913;48.370;10.930;2023-05-23T03:31:44;117.68;;;52.05;;
13255;SDS011;37913;48.370;10.930;2023-05-23T03:34:11;111.35;;;51.63;;
13255;SDS011;37913;48.370;10.930;2023-05-23T03:36:38;109.25;;;51.08;;
13255;SDS011;37913;48.370;10.930;2023-05-23T03:39:05;110.22;;;52.25;;
13255;SDS011;37913;48.370;10.930;2023-05-23T03:41:32;118.60;;;52.22;;
13255;SDS011;37913;48.370;10.930;2023-05-23T03:43:59;104.15;;;49.88;;
13255;SDS011;37913;48.370;10.930;2023-05-23T03:46:27;120.57;;;54.50;;
13255;SDS011;37913;48.370;10.930;2023-05-23T03:48:54;106.90;;;50.03;;
13255;SDS011;37913;48.370;10.930;2023-05-23T03:51:21;103.43;;;50.20;;
13255;SDS011;37913;48.370;10.930;2023-05-23T03:53:48;105.22;;;51.83;;
13255;SDS011;37913;48.370;10.930;2023-05-23T03:56:15;107.40;;;51.88;;
13255;SDS011;37913;48.370;10.930;2023-05-23T03:58:42;95.82;;;50.03;;
13255;SDS011;37913;48.370;10.930;2023-05-23T04:01:08;113.70;;;51.85;;
13255;SDS011;37913;48.370;10.930;2023-05-23T04:03:37;121.80;;;54.55;;
13255;SDS011;37913;48.370;10.930;2023-05-23T04:06:04;113.13;;;53.05;;
13255;SDS011;37913;48.370;10.930;2023-05-23T04:08:31;107.65;;;51.60;;
13255;SDS011;37913;48.370;10.930;2023-05-23T04:10:59;107.30;;;51.35;;
13255;SDS011;37913;48.370;10.930;2023-05-23T04:13:26;111.55;;;51.88;;
13255;SDS011;37913;48.370;10.930;2023-05-23T04:15:55;112.88;;;52.78;;
13255;SDS011;37913;48.370;10.930;2023-05-23T04:18:23;120.28;;;53.15;;
13255;SDS011;37913;48.370;10.930;2023-05-23T04:20:51;122.97;;;54.28;;
13255;SDS011;37913;48.370;10.930;2023-05-23T04:23:18;102.57;;;49.90;;
13255;SDS011;37913;48.370;10.930;2023-05-23T04:25:45;117.90;;;53.05;;
13255;SDS011;37913;48.370;10.930;2023-05-23T04:28:13;117.93;;;53.67;;
13255;SDS011;37913;48.370;10.930;2023-05-23T04:30:41;114.93;;;53.28;;
13255;SDS011;37913;48.370;10.930;2023-05-23T04:33:08;113.43;;;52.72;;
13255;SDS011;37913;48.370;10.930;2023-05-23T04:35:35;109.85;;;52.72;;
13255;SDS011;37913;48.370;10.930;2023-05-23T04:38:06;119.70;;;54.60;;
13255;SDS011;37913;48.370;10.930;2023-05-23T04:40:32;116.30;;;53.00;;
13255;SDS011;37913;48.370;10.930;2023-05-23T04:42:59;118.15;;;53.35;;
13255;SDS011;37913;48.370;10.930;2023-05-23T04:45:26;117.85;;;53.53;;
13255;SDS011;37913;48.370;10.930;2023-05-23T04:47:53;106.78;;;51.53;;
13255;SDS011;37913;48.370;10.930;2023-05-23T04:50:20;150.98;;;61.05;;
13255;SDS011;37913;48.370;10.930;2023-05-23T04:52:47;117.55;;;53.72;;
13255;SDS011;37913;48.370;10.930;2023-05-23T04:55:16;113.63;;;53.85;;
13255;SDS011;37913;48.370;10.930;2023-05-23T04:57:44;116.47;;;53.58;;
13255;SDS011;37913;48.370;10.930;2023-05-23T05:00:12;111.88;;;53.85;;
13255;SDS011;37913;48.370;10.930;2023-05-23T05:02:39;112.40;;;53.25;;
13255;SDS011;37913;48.370;10.930;2023-05-23T05:05:07;114.93;;;53.53;;
13255;SDS011;37913;48.370;10.930;2023-05-23T05:07:35;101.97;;;51.63;;
13255;SDS011;37913;48.370;10.930;2023-05-23T05:10:02;127.20;;;56.33;;
13255;SDS011;37913;48.370;10.930;2023-05-23T05:12:31;117.53;;;54.63;;
13255;SDS011;37913;48.370;10.930;2023-05-23T05:14:58;120.28;;;55.70;;
13255;SDS011;37913;48.370;10.930;2023-05-23T05:17:26;121.88;;;56.38;;
13255;SDS011;37913;48.370;10.930;2023-05-23T05:19:54;116.38;;;56.03;;
13255;SDS011;37913;48.370;10.930;2023-05-23T05:22:20;113.88;;;55.72;;
13255;SDS011;37913;48.370;10.930;2023-05-23T05:24:49;125.60;;;57.83;;
13255;SDS011;37913;48.370;10.930;2023-05-23T05:27:16;116.20;;;55.75;;
13255;SDS011;37913;48.370;10.930;2023-05-23T05:29:44;114.72;;;55.58;;
13255;SDS011;37913;48.370;10.930;2023-05-23T05:32:12;119.55;;;55.63;;
13255;SDS011;37913;48.370;10.930;2023-05-23T05:34:39;125.65;;;58.10;;
13255;SDS011;37913;48.370;10.930;2023-05-23T05:37:07;120.50;;;55.90;;
13255;SDS011;37913;48.370;10.930;2023-05-23T05:39:34;103.45;;;54.88;;
13255;SDS011;37913;48.370;10.930;2023-05-23T05:42:01;122.95;;;56.30;;
13255;SDS011;37913;48.370;10.930;2023-05-23T05:44:29;112.80;;;55.22;;
13255;SDS011;37913;48.370;10.930;2023-05-23T05:46:57;134.52;;;59.97;;
13255;SDS011;37913;48.370;10.930;2023-05-23T05:49:24;111.78;;;54.47;;
13255;SDS011;37913;48.370;10.930;2023-05-23T05:51:51;113.95;;;55.65;;
13255;SDS011;37913;48.370;10.930;2023-05-23T05:54:18;113.25;;;54.80;;
13255;SDS011;37913;48.370;10.930;2023-05-23T05:56:45;109.70;;;55.22;;
13255;SDS011;37913;48.370;10.930;2023-05-23T05:59:12;117.85;;;56.25;;
13255;SDS011;37913;48.370;10.930;2023-05-23T06:01:39;118.60;;;56.67;;
13255;SDS011;37913;48.370;10.930;2023-05-23T06:04:07;119.43;;;56.33;;
13255;SDS011;37913;48.370;10.930;2023-05-23T06:06:35;99.65;;;53.80;;
13255;SDS011;37913;48.370;10.930;2023-05-23T06:09:01;113.55;;;56.58;;
13255;SDS011;37913;48.370;10.930;2023-05-23T06:11:29;124.22;;;59.22;;
13255;SDS011;37913;48.370;10.930;2023-05-23T06:13:56;112.28;;;56.83;;
13255;SDS011;37913;48.370;10.930;2023-05-23T06:16:23;104.50;;;56.33;;
13255;SDS011;37913;48.370;10.930;2023-05-23T06:18:50;110.03;;;56.60;;
13255;SDS011;37913;48.370;10.930;2023-05-23T06:21:18;124.45;;;62.55;;
13255;SDS011;37913;48.370;10.930;2023-05-23T06:23:45;136.88;;;64.72;;
13255;SDS011;37913;48.370;10.930;2023-05-23T06:26:12;128.25;;;61.42;;
13255;SDS011;37913;48.370;10.930;2023-05-23T06:28:39;118.38;;;59.42;;
13255;SDS011;37913;48.370;10.930;2023-05-23T06:31:06;126.35;;;61.97;;
13255;SDS011;37913;48.370;10.930;2023-05-23T06:33:35;105.57;;;56.35;;
13255;SDS011;37913;48.370;10.930;2023-05-23T06:36:02;115.50;;;59.95;;
13255;SDS011;37913;48.370;10.930;2023-05-23T06:38:31;120.50;;;60.05;;
13255;SDS011;37913;48.370;10.930;2023-05-23T06:40:58;115.72;;;59.30;;
13255;SDS011;37913;48.370;10.930;2023-05-23T06:43:26;126.30;;;61.45;;
13255;SDS011;37913;48.370;10.930;2023-05-23T06:45:53;112.20;;;57.33;;
13255;SDS011;37913;48.370;10.930;2023-05-23T06:48:20;116.80;;;57.90;;
13255;SDS011;37913;48.370;10.930;2023-05-23T06:50:48;116.22;;;57.38;;
13255;SDS011;37913;48.370;10.930;2023-05-23T06:53:15;115.88;;;58.13;;
13255;SDS011;37913;48.370;10.930;2023-05-23T06:55:44;109.47;;;56.88;;
13255;SDS011;37913;48.370;10.930;2023-05-23T06:58:11;118.80;;;58.72;;
13255;SDS011;37913;48.370;10.930;2023-05-23T07:00:38;116.65;;;56.83;;
13255;SDS011;37913;48.370;10.930;2023-05-23T07:03:05;108.47;;;55.83;;
13255;SDS011;37913;48.370;10.930;2023-05-23T07:05:32;113.07;;;56.85;;
13255;SDS011;37913;48.370;10.930;2023-05-23T07:08:01;118.47;;;57.90;;
13255;SDS011;37913;48.370;10.930;2023-05-23T07:10:28;108.43;;;55.70;;
13255;SDS011;37913;48.370;10.930;2023-05-23T07:12:59;106.93;;;55.45;;
13255;SDS011;37913;48.370;10.930;2023-05-23T07:15:26;109.53;;;55.92;;
13255;SDS011;37913;48.370;10.930;2023-05-23T07:17:52;115.05;;;58.30;;
13255;SDS011;37913;48.370;10.930;2023-05-23T07:20:19;107.97;;;56.10;;
13255;SDS011;37913;48.370;10.930;2023-05-23T07:22:46;109.82;;;57.17;;
13255;SDS011;37913;48.370;10.930;2023-05-23T07:25:15;182.65;;;73.10;;
13255;SDS011;37913;48.370;10.930;2023-05-23T07:27:42;105.05;;;57.28;;
13255;SDS011;37913;48.370;10.930;2023-05-23T07:30:11;100.50;;;56.33;;
13255;SDS011;37913;48.370;10.930;2023-05-23T07:32:38;104.63;;;57.65;;
13255;SDS011;37913;48.370;10.930;2023-05-23T07:35:05;101.00;;;56.38;;
13255;SDS011;37913;48.370;10.930;2023-05-23T07:37:32;105.97;;;57.95;;
13255;SDS011;37913;48.370;10.930;2023-05-23T07:39:59;127.18;;;63.10;;
13255;SDS011;37913;48.370;10.930;2023-05-23T07:42:27;104.30;;;58.08;;
13255;SDS011;37913;48.370;10.930;2023-05-23T07:44:54;120.18;;;61.20;;
13255;SDS011;37913;48.370;10.930;2023-05-23T07:47:22;121.55;;;62.55;;
13255;SDS011;37913;48.370;10.930;2023-05-23T07:49:49;109.00;;;59.78;;
13255;SDS011;37913;48.370;10.930;2023-05-23T07:52:17;107.15;;;58.08;;
13255;SDS011;37913;48.370;10.930;2023-05-23T07:54:44;133.35;;;64.28;;
13255;SDS011;37913;48.370;10.930;2023-05-23T07:57:11;106.38;;;57.85;;
13255;SDS011;37913;48.370;10.930;2023-05-23T07:59:40;106.45;;;58.22;;
13255;SDS011;37913;48.370;10.930;2023-05-23T08:02:07;113.38;;;59.60;;
13255;SDS011;37913;48.370;10.930;2023-05-23T08:04:35;112.50;;;59.05;;
13255;SDS011;37913;48.370;10.930;2023-05-23T08:07:04;120.88;;;61.45;;
13255;SDS011;37913;48.370;10.930;2023-05-23T08:09:32;115.00;;;60.80;;
13255;SDS011;37913;48.370;10.930;2023-05-23T08:11:59;115.95;;;60.45;;
13255;SDS011;37913;48.370;10.930;2023-05-23T08:14:27;119.65;;;60.95;;
13255;SDS011;37913;48.370;10.930;2023-05-23T08:16:54;105.63;;;59.03;;
13255;SDS011;37913;48.370;10.930;2023-05-23T08:19:21;115.13;;;63.28;;
13255;SDS011;37913;48.370;10.930;2023-05-23T08:21:50;107.18;;;61.38;;
13255;SDS011;37913;48.370;10.930;2023-05-23T08:24:17;110.63;;;62.85;;
13255;SDS011;37913;48.370;10.930;2023-05-23T08:26:44;109.72;;;62.22;;
13255;SDS011;37913;48.370;10.930;2023-05-23T08:29:11;103.25;;;60.78;;
13255;SDS011;37913;48.370;10.930;2023-05-23T08:31:38;99.57;;;60.95;;
13255;SDS011;37913;48.370;10.930;2023-05-23T08:34:05;105.10;;;61.17;;
13255;SDS011;37913;48.370;10.930;2023-05-23T08:36:32;99.93;;;58.58;;
13255;SDS011;37913;48.370;10.930;2023-05-23T08:39:01;103.15;;;59.30;;
13255;SDS011;37913;48.370;10.930;2023-05-23T08:41:29;109.25;;;61.15;;
13255;SDS011;37913;48.370;10.930;2023-05-23T08:43:56;108.00;;;60.05;;
13255;SDS011;37913;48.370;10.930;2023-05-23T08:46:23;109.68;;;59.72;;
13255;SDS011;37913;48.370;10.930;2023-05-23T08:48:51;97.25;;;56.92;;
13255;SDS011;37913;48.370;10.930;2023-05-23T08:51:20;119.38;;;60.92;;
13255;SDS011;37913;48.370;10.930;2023-05-23T08:53:47;111.43;;;60.38;;
13255;SDS011;37913;48.370;10.930;2023-05-23T08:56:16;112.63;;;59.58;;
13255;SDS011;37913;48.370;10.930;2023-05-23T08:58:43;120.78;;;59.95;;
13255;SDS011;37913;48.370;10.930;2023-05-23T09:01:12;108.82;;;58.30;;
13255;SDS011;37913;48.370;10.930;2023-05-23T09:03:42;116.03;;;59.72;;
13255;SDS011;37913;48.370;10.930;2023-05-23T09:06:09;113.63;;;61.15;;
13255;SDS011;37913;48.370;10.930;2023-05-23T09:08:36;113.13;;;60.92;;
13255;SDS011;37913;48.370;10.930;2023-05-23T09:11:04;117.30;;;61.17;;
13255;SDS011;37913;48.370;10.930;2023-05-23T09:13:34;102.63;;;56.90;;
13255;SDS011;37913;48.370;10.930;2023-05-23T09:16:01;104.47;;;58.08;;
13255;SDS011;37913;48.370;10.930;2023-05-23T09:18:32;107.53;;;59.92;;
13255;SDS011;37913;48.370;10.930;2023-05-23T09:21:00;115.38;;;60.22;;
13255;SDS011;37913;48.370;10.930;2023-05-23T09:23:31;103.80;;;57.38;;
13255;SDS011;37913;48.370;10.930;2023-05-23T09:26:00;105.38;;;59.67;;
13255;SDS011;37913;48.370;10.930;2023-05-23T09:28:28;119.47;;;61.58;;
13255;SDS011;37913;48.370;10.930;2023-05-23T09:31:00;119.15;;;63.28;;
13255;SDS011;37913;48.370;10.930;2023-05-23T09:33:33;124.93;;;64.85;;
13255;SDS011;37913;48.370;10.930;2023-05-23T09:36:02;110.57;;;65.50;;
13255;SDS011;37913;48.370;10.930;2023-05-23T09:38:30;111.20;;;68.88;;
13255;SDS011;37913;48.370;10.930;2023-05-23T09:40:57;113.20;;;75.18;;
13255;SDS011;37913;48.370;10.930;2023-05-23T09:43:24;109.72;;;80.28;;
13255;SDS011;37913;48.370;10.930;2023-05-23T09:45:53;107.38;;;81.35;;
13255;SDS011;37913;48.370;10.930;2023-05-23T09:48:28;110.57;;;84.22;;
13255;SDS011;37913;48.370;10.930;2023-05-23T09:50:56;118.43;;;86.50;;
13255;SDS011;37913;48.370;10.930;2023-05-23T09:53:23;104.95;;;79.45;;
13255;SDS011;37913;48.370;10.930;2023-05-23T09:55:50;110.03;;;81.82;;
13255;SDS011;37913;48.370;10.930;2023-05-23T09:58:19;107.70;;;79.57;;
13255;SDS011;37913;48.370;10.930;2023-05-23T10:00:49;111.88;;;77.70;;
13255;SDS011;37913;48.370;10.930;2023-05-23T10:03:21;111.18;;;74.65;;
13255;SDS011;37913;48.370;10.930;2023-05-23T10:05:54;100.35;;;71.53;;
13255;SDS011;37913;48.370;10.930;2023-05-23T10:08:26;111.80;;;75.00;;
13255;SDS011;37913;48.370;10.930;2023-05-23T10:14:00;110.30;;;77.35;;
13255;SDS011;37913;48.370;10.930;2023-05-23T10:16:29;105.07;;;74.32;;
13255;SDS011;37913;48.370;10.930;2023-05-23T10:19:06;111.43;;;75.03;;
13255;SDS011;37913;48.370;10.930;2023-05-23T10:21:41;117.97;;;74.70;;
13255;SDS011;37913;48.370;10.930;2023-05-23T10:24:11;115.55;;;75.15;;
13255;SDS011;37913;48.370;10.930;2023-05-23T10:26:38;106.20;;;76.28;;
13255;SDS011;37913;48.370;10.930;2023-05-23T10:29:06;116.90;;;85.03;;
13255;SDS011;37913;48.370;10.930;2023-05-23T10:31:33;127.28;;;93.63;;
13255;SDS011;37913;48.370;10.930;2023-05-23T10:34:02;119.20;;;96.55;;
13255;SDS011;37913;48.370;10.930;2023-05-23T10:36:37;111.18;;;98.78;;
13255;SDS011;37913;48.370;10.930;2023-05-23T10:39:14;133.85;;;105.40;;
13255;SDS011;37913;48.370;10.930;2023-05-23T10:41:49;112.22;;;100.05;;
13255;SDS011;37913;48.370;10.930;2023-05-23T10:44:22;120.32;;;104.57;;
13255;SDS011;37913;48.370;10.930;2023-05-23T10:46:52;115.85;;;103.82;;
13255;SDS011;37913;48.370;10.930;2023-05-23T10:49:23;118.15;;;106.07;;
13255;SDS011;37913;48.370;10.930;2023-05-23T10:52:06;125.03;;;110.65;;
13255;SDS011;37913;48.370;10.930;2023-05-23T10:54:34;122.40;;;110.05;;
13255;SDS011;37913;48.370;10.930;2023-05-23T10:57:01;122.45;;;110.13;;
13255;SDS011;37913;48.370;10.930;2023-05-23T10:59:29;124.38;;;111.65;;
13255;SDS011;37913;48.370;10.930;2023-05-23T11:01:56;129.32;;;116.63;;
13255;SDS011;37913;48.370;10.930;2023-05-23T11:04:25;129.30;;;117.25;;
13255;SDS011;37913;48.370;10.930;2023-05-23T11:06:52;131.07;;;117.90;;
13255;SDS011;37913;48.370;10.930;2023-05-23T11:09:22;135.27;;;122.32;;
13255;SDS011;37913;48.370;10.930;2023-05-23T11:11:53;122.78;;;110.57;;
13255;SDS011;37913;48.370;10.930;2023-05-23T11:14:33;116.90;;;104.25;;
13255;SDS011;37913;48.370;10.930;2023-05-23T11:17:17;129.32;;;106.60;;
13255;SDS011;37913;48.370;10.930;2023-05-23T11:19:58;124.68;;;101.15;;
13255;SDS011;37913;48.370;10.930;2023-05-23T11:22:29;115.13;;;97.97;;
13255;SDS011;37913;48.370;10.930;2023-05-23T11:24:58;130.88;;;104.93;;
13255;SDS011;37913;48.370;10.930;2023-05-23T11:27:26;111.72;;;100.05;;
13255;SDS011;37913;48.370;10.930;2023-05-23T11:29:58;118.07;;;104.75;;
13255;SDS011;37913;48.370;10.930;2023-05-23T11:32:30;125.55;;;112.35;;
13255;SDS011;37913;48.370;10.930;2023-05-23T11:35:00;126.72;;;111.85;;
13255;SDS011;37913;48.370;10.930;2023-05-23T11:37:28;121.03;;;109.60;;
13255;SDS011;37913;48.370;10.930;2023-05-23T11:39:56;127.97;;;115.63;;
13255;SDS011;37913;48.370;10.930;2023-05-23T11:42:26;120.72;;;109.07;;
13255;SDS011;37913;48.370;10.930;2023-05-23T11:44:52;126.35;;;107.68;;
13255;SDS011;37913;48.370;10.930;2023-05-23T11:47:19;111.53;;;99.65;;
13255;SDS011;37913;48.370;10.930;2023-05-23T11:49:46;112.45;;;100.60;;
13255;SDS011;37913;48.370;10.930;2023-05-23T11:52:13;132.73;;;105.88;;
13255;SDS011;37913;48.370;10.930;2023-05-23T11:54:40;115.65;;;97.40;;
13255;SDS011;37913;48.370;10.930;2023-05-23T11:57:09;119.32;;;92.43;;
13255;SDS011;37913;48.370;10.930;2023-05-23T11:59:37;115.10;;;90.38;;
13255;SDS011;37913;48.370;10.930;2023-05-23T12:02:05;112.68;;;86.43;;
13255;SDS011;37913;48.370;10.930;2023-05-23T12:04:33;115.95;;;82.15;;
13255;SDS011;37913;48.370;10.930;2023-05-23T12:07:03;111.85;;;78.03;;
13255;SDS011;37913;48.370;10.930;2023-05-23T12:09:31;101.95;;;74.13;;
13255;SDS011;37913;48.370;10.930;2023-05-23T12:11:58;120.78;;;77.65;;
13255;SDS011;37913;48.370;10.930;2023-05-23T12:14:27;99.47;;;71.97;;
13255;SDS011;37913;48.370;10.930;2023-05-23T12:16:59;106.20;;;78.32;;
13255;SDS011;37913;48.370;10.930;2023-05-23T12:19:26;106.85;;;82.18;;
13255;SDS011;37913;48.370;10.930;2023-05-23T12:21:53;109.93;;;84.13;;
13255;SDS011;37913;48.370;10.930;2023-05-23T12:24:20;111.95;;;82.22;;
13255;SDS011;37913;48.370;10.930;2023-05-23T12:26:48;110.72;;;79.82;;
13255;SDS011;37913;48.370;10.930;2023-05-23T12:29:17;106.43;;;77.75;;
13255;SDS011;37913;48.370;10.930;2023-05-23T12:31:51;133.63;;;119.78;;
13255;SDS011;37913;48.370;10.930;2023-05-23T12:34:20;111.53;;;76.47;;
13255;SDS011;37913;48.370;10.930;2023-05-23T12:36:48;106.78;;;72.97;;
13255;SDS011;37913;48.370;10.930;2023-05-23T12:39:22;113.05;;;74.20;;
13255;SDS011;37913;48.370;10.930;2023-05-23T12:41:51;114.88;;;73.45;;
13255;SDS011;37913;48.370;10.930;2023-05-23T12:44:20;109.60;;;68.22;;
13255;SDS011;37913;48.370;10.930;2023-05-23T12:46:47;107.47;;;67.30;;
13255;SDS011;37913;48.370;10.930;2023-05-23T12:49:15;114.35;;;67.28;;
13255;SDS011;37913;48.370;10.930;2023-05-23T12:51:42;103.38;;;63.10;;
13255;SDS011;37913;48.370;10.930;2023-05-23T12:54:09;111.75;;;65.85;;
13255;SDS011;37913;48.370;10.930;2023-05-23T12:56:36;111.97;;;63.50;;
13255;SDS011;37913;48.370;10.930;2023-05-23T12:59:05;107.88;;;65.57;;
13255;SDS011;37913;48.370;10.930;2023-05-23T13:01:32;103.72;;;66.63;;
13255;SDS011;37913;48.370;10.930;2023-05-23T13:04:01;100.25;;;66.55;;
13255;SDS011;37913;48.370;10.930;2023-05-23T13:06:30;110.50;;;67.53;;
13255;SDS011;37913;48.370;10.930;2023-05-23T13:08:57;103.85;;;64.38;;
13255;SDS011;37913;48.370;10.930;2023-05-23T13:11:24;102.53;;;63.08;;
13255;SDS011;37913;48.370;10.930;2023-05-23T13:13:51;110.15;;;62.33;;
13255;SDS011;37913;48.370;10.930;2023-05-23T13:16:18;100.07;;;60.00;;
13255;SDS011;37913;48.370;10.930;2023-05-23T13:18:45;98.53;;;58.40;;
13255;SDS011;37913;48.370;10.930;2023-05-23T13:21:12;115.90;;;59.90;;
13255;SDS011;37913;48.370;10.930;2023-05-23T13:23:40;99.93;;;56.30;;
13255;SDS011;37913;48.370;10.930;2023-05-23T13:26:07;109.40;;;59.08;;
13255;SDS011;37913;48.370;10.930;2023-05-23T13:28:34;103.60;;;56.42;;
13255;SDS011;37913;48.370;10.930;2023-05-23T13:31:01;104.65;;;56.88;;
13255;SDS011;37913;48.370;10.930;2023-05-23T13:33:28;106.32;;;56.95;;
13255;SDS011;37913;48.370;10.930;2023-05-23T13:35:55;98.60;;;56.83;;
13255;SDS011;37913;48.370;10.930;2023-05-23T13:38:22;104.03;;;59.50;;
13255;SDS011;37913;48.370;10.930;2023-05-23T13:40:52;107.25;;;64.80;;
13255;SDS011;37913;48.370;10.930;2023-05-23T13:43:19;108.70;;;65.13;;
13255;SDS011;37913;48.370;10.930;2023-05-23T13:45:46;100.13;;;64.47;;
13255;SDS011;37913;48.370;10.930;2023-05-23T13:48:13;104.45;;;64.18;;
13255;SDS011;37913;48.370;10.930;2023-05-23T13:50:41;88.05;;;61.08;;
13255;SDS011;37913;48.370;10.930;2023-05-23T13:53:07;102.00;;;63.97;;
13255;SDS011;37913;48.370;10.930;2023-05-23T13:55:39;97.97;;;61.28;;
13255;SDS011;37913;48.370;10.930;2023-05-23T13:58:08;111.60;;;62.05;;
13255;SDS011;37913;48.370;10.930;2023-05-23T14:00:34;94.90;;;60.05;;
13255;SDS011;37913;48.370;10.930;2023-05-23T14:03:01;104.13;;;61.28;;
13255;SDS011;37913;48.370;10.930;2023-05-23T14:05:28;98.47;;;58.38;;
13255;SDS011;37913;48.370;10.930;2023-05-23T14:07:56;101.10;;;58.70;;